sensor_id;sensor_type;location;lat;lon;timestamp;temperature;humidity
33863;DHT22;20158;51.436;-2.742;2023-02-11T00:02:02;10.80;68.90
33863;DHT22;20158;51.436;-2.742;2023-02-11T00:04:30;10.80;68.90
33863;DHT22;20158;51.436;-2.742;2023-02-11T00:06:56;10.80;68.90
33863;DHT22;20158;51.436;-2.742;2023-02-11T00:09:22;10.80;69.00
33863;DHT22;20158;51.436;-2.742;2023-02-11T00:11:48;10.80;69.00
33863;DHT22;20158;51.436;-2.742;2023-02-11T00:14:14;10.80;69.00
33863;DHT22;20158;51.436;-2.742;2023-02-11T00:16:40;10.80;69.00
33863;DHT22;20158;51.436;-2.742;2023-02-11T00:19:06;10.80;69.10
33863;DHT22;20158;51.436;-2.742;2023-02-11T00:21:33;10.80;69.10
33863;DHT22;20158;51.436;-2.742;2023-02-11T00:23:59;10.80;69.10
33863;DHT22;20158;51.436;-2.742;2023-02-11T00:26:30;10.80;69.20
33863;DHT22;20158;51.436;-2.742;2023-02-11T00:28:56;10.80;69.20
33863;DHT22;20158;51.436;-2.742;2023-02-11T00:31:24;10.80;69.20
33863;DHT22;20158;51.436;-2.742;2023-02-11T00:33:50;10.80;69.30
33863;DHT22;20158;51.436;-2.742;2023-02-11T00:36:19;10.70;69.10
33863;DHT22;20158;51.436;-2.742;2023-02-11T00:38:46;10.80;69.30
33863;DHT22;20158;51.436;-2.742;2023-02-11T00:41:13;10.70;69.20
33863;DHT22;20158;51.436;-2.742;2023-02-11T00:43:39;10.70;69.20
33863;DHT22;20158;51.436;-2.742;2023-02-11T00:46:06;10.70;69.20
33863;DHT22;20158;51.436;-2.742;2023-02-11T00:48:32;10.70;69.20
33863;DHT22;20158;51.436;-2.742;2023-02-11T00:51:00;10.70;69.30
33863;DHT22;20158;51.436;-2.742;2023-02-11T00:53:26;10.70;69.30
33863;DHT22;20158;51.436;-2.742;2023-02-11T00:55:52;10.70;69.30
33863;DHT22;20158;51.436;-2.742;2023-02-11T00:58:18;10.70;69.40
33863;DHT22;20158;51.436;-2.742;2023-02-11T01:00:44;10.70;69.40
33863;DHT22;20158;51.436;-2.742;2023-02-11T01:03:12;10.80;69.60
33863;DHT22;20158;51.436;-2.742;2023-02-11T01:05:38;10.70;69.40
33863;DHT22;20158;51.436;-2.742;2023-02-11T01:08:04;10.70;69.50
33863;DHT22;20158;51.436;-2.742;2023-02-11T01:10:30;10.70;69.50
33863;DHT22;20158;51.436;-2.742;2023-02-11T01:12:56;10.70;69.50
33863;DHT22;20158;51.436;-2.742;2023-02-11T01:15:23;10.80;69.70
33863;DHT22;20158;51.436;-2.742;2023-02-11T01:17:49;10.80;69.70
33863;DHT22;20158;51.436;-2.742;2023-02-11T01:20:21;10.80;69.70
33863;DHT22;20158;51.436;-2.742;2023-02-11T01:22:47;10.80;69.80
33863;DHT22;20158;51.436;-2.742;2023-02-11T01:25:14;10.80;69.80
33863;DHT22;20158;51.436;-2.742;2023-02-11T01:27:40;10.80;69.80
33863;DHT22;20158;51.436;-2.742;2023-02-11T01:30:10;10.80;69.80
33863;DHT22;20158;51.436;-2.742;2023-02-11T01:32:36;10.80;69.80
33863;DHT22;20158;51.436;-2.742;2023-02-11T01:35:03;10.80;70.30
33863;DHT22;20158;51.436;-2.742;2023-02-11T01:37:28;10.80;69.80
33863;DHT22;20158;51.436;-2.742;2023-02-11T01:39:57;10.80;69.80
33863;DHT22;20158;51.436;-2.742;2023-02-11T01:42:22;10.80;69.80
33863;DHT22;20158;51.436;-2.742;2023-02-11T01:44:52;10.80;69.80
33863;DHT22;20158;51.436;-2.742;2023-02-11T01:47:20;10.80;69.80
33863;DHT22;20158;51.436;-2.742;2023-02-11T01:49:51;10.80;69.80
33863;DHT22;20158;51.436;-2.742;2023-02-11T01:52:36;10.80;69.80
33863;DHT22;20158;51.436;-2.742;2023-02-11T01:55:08;10.80;69.90
33863;DHT22;20158;51.436;-2.742;2023-02-11T01:57:59;10.80;69.80
33863;DHT22;20158;51.436;-2.742;2023-02-11T02:00:34;10.80;69.80
33863;DHT22;20158;51.436;-2.742;2023-02-11T02:03:11;10.80;69.90
33863;DHT22;20158;51.436;-2.742;2023-02-11T02:10:50;10.80;69.90
33863;DHT22;20158;51.436;-2.742;2023-02-11T02:13:19;10.80;70.00
33863;DHT22;20158;51.436;-2.742;2023-02-11T02:16:03;10.80;70.00
33863;DHT22;20158;51.436;-2.742;2023-02-11T02:32:41;10.80;70.10
33863;DHT22;20158;51.436;-2.742;2023-02-11T02:35:16;10.80;70.10
33863;DHT22;20158;51.436;-2.742;2023-02-11T02:37:58;10.70;69.70
33863;DHT22;20158;51.436;-2.742;2023-02-11T02:40:38;10.70;69.80
33863;DHT22;20158;51.436;-2.742;2023-02-11T02:43:06;10.80;70.00
33863;DHT22;20158;51.436;-2.742;2023-02-11T02:45:33;10.70;69.80
33863;DHT22;20158;51.436;-2.742;2023-02-11T02:47:59;10.70;69.90
33863;DHT22;20158;51.436;-2.742;2023-02-11T02:50:32;10.80;70.10
33863;DHT22;20158;51.436;-2.742;2023-02-11T02:53:28;10.70;69.90
33863;DHT22;20158;51.436;-2.742;2023-02-11T02:56:04;10.70;70.00
33863;DHT22;20158;51.436;-2.742;2023-02-11T03:04:19;10.70;70.00
33863;DHT22;20158;51.436;-2.742;2023-02-11T03:06:52;10.70;70.00
33863;DHT22;20158;51.436;-2.742;2023-02-11T03:09:45;10.70;70.00
33863;DHT22;20158;51.436;-2.742;2023-02-11T03:12:14;10.70;70.10
33863;DHT22;20158;51.436;-2.742;2023-02-11T03:14:41;10.70;70.10
33863;DHT22;20158;51.436;-2.742;2023-02-11T03:17:09;10.70;70.10
33863;DHT22;20158;51.436;-2.742;2023-02-11T03:19:43;10.70;70.10
33863;DHT22;20158;51.436;-2.742;2023-02-11T03:22:19;10.70;70.20
33863;DHT22;20158;51.436;-2.742;2023-02-11T03:24:47;10.70;70.20
33863;DHT22;20158;51.436;-2.742;2023-02-11T03:27:18;10.70;70.10
33863;DHT22;20158;51.436;-2.742;2023-02-11T03:32:32;10.70;70.20
33863;DHT22;20158;51.436;-2.742;2023-02-11T03:35:22;10.70;70.30
33863;DHT22;20158;51.436;-2.742;2023-02-11T03:38:01;10.70;70.20
33863;DHT22;20158;51.436;-2.742;2023-02-11T03:40:31;10.70;70.20
33863;DHT22;20158;51.436;-2.742;2023-02-11T03:43:03;10.70;70.20
33863;DHT22;20158;51.436;-2.742;2023-02-11T03:45:31;10.70;70.20
33863;DHT22;20158;51.436;-2.742;2023-02-11T03:50:40;10.70;70.30
33863;DHT22;20158;51.436;-2.742;2023-02-11T03:53:07;10.70;70.80
33863;DHT22;20158;51.436;-2.742;2023-02-11T03:55:36;10.70;70.30
33863;DHT22;20158;51.436;-2.742;2023-02-11T03:58:03;10.70;70.30
33863;DHT22;20158;51.436;-2.742;2023-02-11T04:00:31;10.70;70.30
33863;DHT22;20158;51.436;-2.742;2023-02-11T04:02:57;10.70;70.40
33863;DHT22;20158;51.436;-2.742;2023-02-11T04:05:23;10.70;70.40
33863;DHT22;20158;51.436;-2.742;2023-02-11T04:07:49;10.70;70.40
33863;DHT22;20158;51.436;-2.742;2023-02-11T04:10:15;10.70;70.50
33863;DHT22;20158;51.436;-2.742;2023-02-11T04:12:41;10.70;70.50
33863;DHT22;20158;51.436;-2.742;2023-02-11T04:15:07;10.70;70.50
33863;DHT22;20158;51.436;-2.742;2023-02-11T04:17:34;10.70;70.50
33863;DHT22;20158;51.436;-2.742;2023-02-11T04:20:00;10.70;70.50
33863;DHT22;20158;51.436;-2.742;2023-02-11T04:22:26;10.70;70.50
33863;DHT22;20158;51.436;-2.742;2023-02-11T04:24:51;10.70;70.60
33863;DHT22;20158;51.436;-2.742;2023-02-11T04:27:17;10.70;70.60
33863;DHT22;20158;51.436;-2.742;2023-02-11T04:29:43;10.70;70.60
33863;DHT22;20158;51.436;-2.742;2023-02-11T04:32:10;10.70;70.60
33863;DHT22;20158;51.436;-2.742;2023-02-11T04:34:36;10.70;70.60
33863;DHT22;20158;51.436;-2.742;2023-02-11T04:37:04;10.70;70.60
33863;DHT22;20158;51.436;-2.742;2023-02-11T04:39:30;10.70;70.70
33863;DHT22;20158;51.436;-2.742;2023-02-11T04:41:56;10.70;70.70
33863;DHT22;20158;51.436;-2.742;2023-02-11T04:44:22;10.60;70.50
33863;DHT22;20158;51.436;-2.742;2023-02-11T04:46:48;10.60;70.50
33863;DHT22;20158;51.436;-2.742;2023-02-11T04:49:14;10.60;70.50
33863;DHT22;20158;51.436;-2.742;2023-02-11T04:51:41;10.60;70.60
33863;DHT22;20158;51.436;-2.742;2023-02-11T04:54:07;10.60;70.60
33863;DHT22;20158;51.436;-2.742;2023-02-11T04:56:33;10.60;70.60
33863;DHT22;20158;51.436;-2.742;2023-02-11T04:58:59;10.60;70.70
33863;DHT22;20158;51.436;-2.742;2023-02-11T05:01:25;10.60;70.70
33863;DHT22;20158;51.436;-2.742;2023-02-11T05:03:51;10.60;70.70
33863;DHT22;20158;51.436;-2.742;2023-02-11T05:06:17;10.60;70.70
33863;DHT22;20158;51.436;-2.742;2023-02-11T05:08:43;10.60;70.70
33863;DHT22;20158;51.436;-2.742;2023-02-11T05:11:18;10.70;70.90
33863;DHT22;20158;51.436;-2.742;2023-02-11T05:13:45;10.60;70.70
33863;DHT22;20158;51.436;-2.742;2023-02-11T05:16:11;10.60;70.70
33863;DHT22;20158;51.436;-2.742;2023-02-11T05:18:39;10.60;70.70
33863;DHT22;20158;51.436;-2.742;2023-02-11T05:21:07;10.60;70.70
33863;DHT22;20158;51.436;-2.742;2023-02-11T05:23:34;10.70;70.90
33863;DHT22;20158;51.436;-2.742;2023-02-11T05:26:02;10.60;70.80
33863;DHT22;20158;51.436;-2.742;2023-02-11T05:28:28;10.60;70.80
33863;DHT22;20158;51.436;-2.742;2023-02-11T05:30:55;10.60;70.80
33863;DHT22;20158;51.436;-2.742;2023-02-11T05:33:21;10.70;71.00
33863;DHT22;20158;51.436;-2.742;2023-02-11T05:35:47;10.60;70.80
33863;DHT22;20158;51.436;-2.742;2023-02-11T05:38:13;10.60;70.80
33863;DHT22;20158;51.436;-2.742;2023-02-11T05:40:39;10.60;70.80
33863;DHT22;20158;51.436;-2.742;2023-02-11T05:43:06;10.60;70.80
33863;DHT22;20158;51.436;-2.742;2023-02-11T05:45:32;10.60;70.90
33863;DHT22;20158;51.436;-2.742;2023-02-11T05:47:58;10.60;70.90
33863;DHT22;20158;51.436;-2.742;2023-02-11T05:50:24;10.60;71.00
33863;DHT22;20158;51.436;-2.742;2023-02-11T05:52:51;10.60;70.90
33863;DHT22;20158;51.436;-2.742;2023-02-11T05:55:17;10.60;70.90
33863;DHT22;20158;51.436;-2.742;2023-02-11T05:57:43;10.60;71.00
33863;DHT22;20158;51.436;-2.742;2023-02-11T06:00:10;10.60;71.00
33863;DHT22;20158;51.436;-2.742;2023-02-11T06:02:39;10.70;71.20
33863;DHT22;20158;51.436;-2.742;2023-02-11T06:05:05;10.60;71.00
33863;DHT22;20158;51.436;-2.742;2023-02-11T06:07:31;10.60;70.90
33863;DHT22;20158;51.436;-2.742;2023-02-11T06:09:57;10.60;70.90
33863;DHT22;20158;51.436;-2.742;2023-02-11T06:12:24;10.60;70.90
33863;DHT22;20158;51.436;-2.742;2023-02-11T06:14:50;10.60;71.00
33863;DHT22;20158;51.436;-2.742;2023-02-11T06:17:15;10.60;70.90
33863;DHT22;20158;51.436;-2.742;2023-02-11T06:19:41;10.60;70.90
33863;DHT22;20158;51.436;-2.742;2023-02-11T06:22:07;10.60;71.00
33863;DHT22;20158;51.436;-2.742;2023-02-11T06:24:33;10.60;71.00
33863;DHT22;20158;51.436;-2.742;2023-02-11T06:26:59;10.60;71.00
33863;DHT22;20158;51.436;-2.742;2023-02-11T06:29:25;10.60;71.00
33863;DHT22;20158;51.436;-2.742;2023-02-11T06:31:51;10.60;71.00
33863;DHT22;20158;51.436;-2.742;2023-02-11T06:34:17;10.60;71.00
33863;DHT22;20158;51.436;-2.742;2023-02-11T06:36:43;10.60;71.00
33863;DHT22;20158;51.436;-2.742;2023-02-11T06:39:11;10.60;71.10
33863;DHT22;20158;51.436;-2.742;2023-02-11T06:41:38;10.50;70.90
33863;DHT22;20158;51.436;-2.742;2023-02-11T06:44:04;10.60;71.20
33863;DHT22;20158;51.436;-2.742;2023-02-11T06:46:30;10.50;70.90
33863;DHT22;20158;51.436;-2.742;2023-02-11T06:48:56;10.50;70.90
33863;DHT22;20158;51.436;-2.742;2023-02-11T06:51:22;10.60;71.20
33863;DHT22;20158;51.436;-2.742;2023-02-11T06:53:48;10.50;71.00
33863;DHT22;20158;51.436;-2.742;2023-02-11T06:56:20;10.60;71.20
33863;DHT22;20158;51.436;-2.742;2023-02-11T06:58:46;10.50;71.00
33863;DHT22;20158;51.436;-2.742;2023-02-11T07:01:14;10.60;71.20
33863;DHT22;20158;51.436;-2.742;2023-02-11T07:03:42;10.50;71.00
33863;DHT22;20158;51.436;-2.742;2023-02-11T07:06:12;10.60;71.20
33863;DHT22;20158;51.436;-2.742;2023-02-11T07:08:38;10.50;71.00
33863;DHT22;20158;51.436;-2.742;2023-02-11T07:11:19;10.50;71.00
33863;DHT22;20158;51.436;-2.742;2023-02-11T07:13:46;10.50;71.00
33863;DHT22;20158;51.436;-2.742;2023-02-11T07:16:14;10.50;71.10
33863;DHT22;20158;51.436;-2.742;2023-02-11T07:18:41;10.50;71.30
33863;DHT22;20158;51.436;-2.742;2023-02-11T07:21:10;10.60;71.50
33863;DHT22;20158;51.436;-2.742;2023-02-11T07:23:36;10.60;71.60
33863;DHT22;20158;51.436;-2.742;2023-02-11T07:26:08;10.60;71.50
33863;DHT22;20158;51.436;-2.742;2023-02-11T07:28:35;10.60;71.50
33863;DHT22;20158;51.436;-2.742;2023-02-11T07:31:12;10.60;71.50
33863;DHT22;20158;51.436;-2.742;2023-02-11T07:33:39;10.60;71.70
33863;DHT22;20158;51.436;-2.742;2023-02-11T07:36:07;10.60;71.80
33863;DHT22;20158;51.436;-2.742;2023-02-11T07:38:34;10.60;71.80
33863;DHT22;20158;51.436;-2.742;2023-02-11T07:41:00;10.70;72.00
33863;DHT22;20158;51.436;-2.742;2023-02-11T07:43:27;10.70;72.00
33863;DHT22;20158;51.436;-2.742;2023-02-11T07:45:53;10.70;72.00
33863;DHT22;20158;51.436;-2.742;2023-02-11T07:48:19;10.80;72.20
33863;DHT22;20158;51.436;-2.742;2023-02-11T07:50:45;10.80;72.20
33863;DHT22;20158;51.436;-2.742;2023-02-11T07:53:11;10.80;72.40
33863;DHT22;20158;51.436;-2.742;2023-02-11T07:55:37;10.90;72.70
33863;DHT22;20158;51.436;-2.742;2023-02-11T07:58:03;11.00;73.00
33863;DHT22;20158;51.436;-2.742;2023-02-11T08:00:29;11.10;73.20
33863;DHT22;20158;51.436;-2.742;2023-02-11T08:02:58;11.20;73.20
33863;DHT22;20158;51.436;-2.742;2023-02-11T08:05:24;11.30;73.10
33863;DHT22;20158;51.436;-2.742;2023-02-11T08:07:51;11.40;73.10
33863;DHT22;20158;51.436;-2.742;2023-02-11T08:10:18;11.30;72.90
33863;DHT22;20158;51.436;-2.742;2023-02-11T08:12:43;11.30;72.80
33863;DHT22;20158;51.436;-2.742;2023-02-11T08:15:09;11.40;73.00
33863;DHT22;20158;51.436;-2.742;2023-02-11T08:17:36;11.30;72.90
33863;DHT22;20158;51.436;-2.742;2023-02-11T08:20:03;11.30;73.00
33863;DHT22;20158;51.436;-2.742;2023-02-11T08:22:33;11.40;73.40
33863;DHT22;20158;51.436;-2.742;2023-02-11T08:25:00;11.50;74.20
33863;DHT22;20158;51.436;-2.742;2023-02-11T08:27:26;11.60;73.90
33863;DHT22;20158;51.436;-2.742;2023-02-11T08:29:53;11.70;74.00
33863;DHT22;20158;51.436;-2.742;2023-02-11T08:32:19;11.90;74.20
33863;DHT22;20158;51.436;-2.742;2023-02-11T08:34:45;12.00;74.20
33863;DHT22;20158;51.436;-2.742;2023-02-11T08:37:11;12.20;74.30
33863;DHT22;20158;51.436;-2.742;2023-02-11T08:39:37;12.40;74.30
33863;DHT22;20158;51.436;-2.742;2023-02-11T08:42:06;12.60;74.40
33863;DHT22;20158;51.436;-2.742;2023-02-11T08:44:31;12.70;74.20
33863;DHT22;20158;51.436;-2.742;2023-02-11T08:46:57;12.90;74.30
33863;DHT22;20158;51.436;-2.742;2023-02-11T08:49:23;13.00;74.10
33863;DHT22;20158;51.436;-2.742;2023-02-11T08:51:49;13.20;74.10
33863;DHT22;20158;51.436;-2.742;2023-02-11T08:54:16;13.20;73.80
33863;DHT22;20158;51.436;-2.742;2023-02-11T08:56:42;13.30;73.70
33863;DHT22;20158;51.436;-2.742;2023-02-11T08:59:12;13.30;73.70
33863;DHT22;20158;51.436;-2.742;2023-02-11T09:01:39;13.40;73.80
33863;DHT22;20158;51.436;-2.742;2023-02-11T09:04:05;13.40;73.60
33863;DHT22;20158;51.436;-2.742;2023-02-11T09:06:31;13.40;73.60
33863;DHT22;20158;51.436;-2.742;2023-02-11T09:08:57;13.40;73.50
33863;DHT22;20158;51.436;-2.742;2023-02-11T09:11:29;13.40;73.50
33863;DHT22;20158;51.436;-2.742;2023-02-11T09:13:55;13.50;73.80
33863;DHT22;20158;51.436;-2.742;2023-02-11T09:16:26;13.60;73.90
33863;DHT22;20158;51.436;-2.742;2023-02-11T09:18:54;13.70;73.80
33863;DHT22;20158;51.436;-2.742;2023-02-11T09:21:20;14.00;74.00
33863;DHT22;20158;51.436;-2.742;2023-02-11T09:23:47;14.10;73.70
33863;DHT22;20158;51.436;-2.742;2023-02-11T09:26:16;14.10;73.40
33863;DHT22;20158;51.436;-2.742;2023-02-11T09:28:42;14.30;74.00
33863;DHT22;20158;51.436;-2.742;2023-02-11T09:31:10;14.40;73.30
33863;DHT22;20158;51.436;-2.742;2023-02-11T09:33:37;14.50;73.20
33863;DHT22;20158;51.436;-2.742;2023-02-11T09:36:04;14.60;73.10
33863;DHT22;20158;51.436;-2.742;2023-02-11T09:38:31;14.70;72.90
33863;DHT22;20158;51.436;-2.742;2023-02-11T09:40:57;14.80;72.70
33863;DHT22;20158;51.436;-2.742;2023-02-11T09:43:32;15.00;72.70
33863;DHT22;20158;51.436;-2.742;2023-02-11T09:46:01;15.00;72.30
33863;DHT22;20158;51.436;-2.742;2023-02-11T09:48:37;15.20;72.80
33863;DHT22;20158;51.436;-2.742;2023-02-11T09:51:05;15.20;71.80
33863;DHT22;20158;51.436;-2.742;2023-02-11T09:53:41;15.30;71.70
33863;DHT22;20158;51.436;-2.742;2023-02-11T09:56:12;15.30;71.50
33863;DHT22;20158;51.436;-2.742;2023-02-11T09:58:40;15.20;71.20
33863;DHT22;20158;51.436;-2.742;2023-02-11T10:04:11;15.20;71.00
33863;DHT22;20158;51.436;-2.742;2023-02-11T10:06:43;15.10;70.80
33863;DHT22;20158;51.436;-2.742;2023-02-11T10:20:14;15.10;70.70
33863;DHT22;20158;51.436;-2.742;2023-02-11T10:22:53;15.10;70.50
33863;DHT22;20158;51.436;-2.742;2023-02-11T10:25:35;15.10;70.40
33863;DHT22;20158;51.436;-2.742;2023-02-11T10:28:15;15.20;70.30
33863;DHT22;20158;51.436;-2.742;2023-02-11T10:30:48;15.20;70.20
33863;DHT22;20158;51.436;-2.742;2023-02-11T10:35:42;15.20;70.00
33863;DHT22;20158;51.436;-2.742;2023-02-11T10:38:10;15.20;69.90
33863;DHT22;20158;51.436;-2.742;2023-02-11T10:40:36;15.30;70.00
33863;DHT22;20158;51.436;-2.742;2023-02-11T10:43:09;15.30;70.10
33863;DHT22;20158;51.436;-2.742;2023-02-11T10:45:50;15.40;70.40
33863;DHT22;20158;51.436;-2.742;2023-02-11T10:51:16;15.70;70.20
33863;DHT22;20158;51.436;-2.742;2023-02-11T10:53:44;15.70;69.90
33863;DHT22;20158;51.436;-2.742;2023-02-11T10:56:19;15.80;69.90
33863;DHT22;20158;51.436;-2.742;2023-02-11T11:01:52;15.80;69.60
33863;DHT22;20158;51.436;-2.742;2023-02-11T11:04:41;15.70;69.40
33863;DHT22;20158;51.436;-2.742;2023-02-11T11:07:21;15.70;69.30
33863;DHT22;20158;51.436;-2.742;2023-02-11T11:17:36;15.60;68.90
33863;DHT22;20158;51.436;-2.742;2023-02-11T11:22:51;15.60;68.70
33863;DHT22;20158;51.436;-2.742;2023-02-11T11:25:25;15.60;68.70
33863;DHT22;20158;51.436;-2.742;2023-02-11T11:27:54;15.60;68.70
33863;DHT22;20158;51.436;-2.742;2023-02-11T11:30:24;15.50;68.50
33863;DHT22;20158;51.436;-2.742;2023-02-11T11:32:51;15.50;68.50
33863;DHT22;20158;51.436;-2.742;2023-02-11T11:35:24;15.60;68.70
33863;DHT22;20158;51.436;-2.742;2023-02-11T11:37:57;15.50;68.30
33863;DHT22;20158;51.436;-2.742;2023-02-11T11:40:27;15.50;68.60
33863;DHT22;20158;51.436;-2.742;2023-02-11T11:43:16;15.50;69.40
33863;DHT22;20158;51.436;-2.742;2023-02-11T11:45:58;15.60;68.90
33863;DHT22;20158;51.436;-2.742;2023-02-11T11:48:33;15.80;68.90
33863;DHT22;20158;51.436;-2.742;2023-02-11T11:51:09;15.80;68.70
33863;DHT22;20158;51.436;-2.742;2023-02-11T11:53:52;15.90;68.60
33863;DHT22;20158;51.436;-2.742;2023-02-11T11:56:29;15.90;68.40
33863;DHT22;20158;51.436;-2.742;2023-02-11T11:58:59;15.90;68.40
33863;DHT22;20158;51.436;-2.742;2023-02-11T12:10:24;15.90;68.30
33863;DHT22;20158;51.436;-2.742;2023-02-11T12:21:14;15.80;68.20
33863;DHT22;20158;51.436;-2.742;2023-02-11T12:35:10;15.40;67.20
33863;DHT22;20158;51.436;-2.742;2023-02-11T12:41:02;15.30;66.90
33863;DHT22;20158;51.436;-2.742;2023-02-11T12:43:46;15.30;66.90
33863;DHT22;20158;51.436;-2.742;2023-02-11T12:46:36;15.30;66.90
33863;DHT22;20158;51.436;-2.742;2023-02-11T12:54:45;15.20;66.70
33863;DHT22;20158;51.436;-2.742;2023-02-11T12:57:25;15.30;66.60
33863;DHT22;20158;51.436;-2.742;2023-02-11T13:00:03;15.30;66.50
33863;DHT22;20158;51.436;-2.742;2023-02-11T13:07:57;15.30;66.20
33863;DHT22;20158;51.436;-2.742;2023-02-11T13:10:35;15.30;66.10
33863;DHT22;20158;51.436;-2.742;2023-02-11T13:13:17;15.30;66.00
33863;DHT22;20158;51.436;-2.742;2023-02-11T13:15:58;15.30;65.90
33863;DHT22;20158;51.436;-2.742;2023-02-11T13:21:37;15.40;65.80
33863;DHT22;20158;51.436;-2.742;2023-02-11T13:27:12;15.50;65.80
33863;DHT22;20158;51.436;-2.742;2023-02-11T13:32:12;15.60;65.50
33863;DHT22;20158;51.436;-2.742;2023-02-11T13:37:34;15.60;65.30
33863;DHT22;20158;51.436;-2.742;2023-02-11T13:42:31;15.70;65.30
33863;DHT22;20158;51.436;-2.742;2023-02-11T13:44:58;15.60;65.10
33863;DHT22;20158;51.436;-2.742;2023-02-11T13:47:32;15.60;65.10
33863;DHT22;20158;51.436;-2.742;2023-02-11T13:50:00;15.60;64.90
33863;DHT22;20158;51.436;-2.742;2023-02-11T13:52:33;15.60;65.00
33863;DHT22;20158;51.436;-2.742;2023-02-11T13:55:25;15.60;64.90
33863;DHT22;20158;51.436;-2.742;2023-02-11T14:14:32;15.90;64.30
33863;DHT22;20158;51.436;-2.742;2023-02-11T14:19:36;15.90;64.00
33863;DHT22;20158;51.436;-2.742;2023-02-11T14:25:01;15.80;63.80
33863;DHT22;20158;51.436;-2.742;2023-02-11T14:27:33;15.80;63.70
33863;DHT22;20158;51.436;-2.742;2023-02-11T14:41:22;15.50;63.20
33863;DHT22;20158;51.436;-2.742;2023-02-11T14:43:52;15.40;63.00
33863;DHT22;20158;51.436;-2.742;2023-02-11T14:46:22;15.40;63.10
33863;DHT22;20158;51.436;-2.742;2023-02-11T14:48:51;15.30;63.00
33863;DHT22;20158;51.436;-2.742;2023-02-11T14:51:35;15.30;62.90
33863;DHT22;20158;51.436;-2.742;2023-02-11T14:54:16;15.20;62.70
33863;DHT22;20158;51.436;-2.742;2023-02-11T14:56:43;15.20;62.70
33863;DHT22;20158;51.436;-2.742;2023-02-11T14:59:18;15.10;62.80
33863;DHT22;20158;51.436;-2.742;2023-02-11T15:01:49;15.00;63.20
33863;DHT22;20158;51.436;-2.742;2023-02-11T15:04:24;15.00;62.80
33863;DHT22;20158;51.436;-2.742;2023-02-11T15:06:51;14.90;62.60
33863;DHT22;20158;51.436;-2.742;2023-02-11T15:09:22;14.80;62.60
33863;DHT22;20158;51.436;-2.742;2023-02-11T15:11:53;14.80;62.80
33863;DHT22;20158;51.436;-2.742;2023-02-11T15:14:30;14.70;62.80
33863;DHT22;20158;51.436;-2.742;2023-02-11T15:17:00;14.60;62.70
33863;DHT22;20158;51.436;-2.742;2023-02-11T15:19:33;14.50;62.70
33863;DHT22;20158;51.436;-2.742;2023-02-11T15:22:05;14.40;62.70
33863;DHT22;20158;51.436;-2.742;2023-02-11T15:24:33;14.40;62.80
33863;DHT22;20158;51.436;-2.742;2023-02-11T15:29:39;14.30;62.90
33863;DHT22;20158;51.436;-2.742;2023-02-11T15:34:34;14.10;62.90
33863;DHT22;20158;51.436;-2.742;2023-02-11T15:37:02;14.10;63.10
33863;DHT22;20158;51.436;-2.742;2023-02-11T15:39:39;14.00;63.00
33863;DHT22;20158;51.436;-2.742;2023-02-11T15:45:07;13.90;63.20
33863;DHT22;20158;51.436;-2.742;2023-02-11T15:47:34;13.90;63.40
33863;DHT22;20158;51.436;-2.742;2023-02-11T15:50:00;13.80;63.40
33863;DHT22;20158;51.436;-2.742;2023-02-11T15:52:27;13.80;63.50
33863;DHT22;20158;51.436;-2.742;2023-02-11T15:54:55;13.80;63.70
33863;DHT22;20158;51.436;-2.742;2023-02-11T15:57:24;13.70;63.60
33863;DHT22;20158;51.436;-2.742;2023-02-11T15:59:52;13.70;63.70
33863;DHT22;20158;51.436;-2.742;2023-02-11T16:02:33;13.60;63.70
33863;DHT22;20158;51.436;-2.742;2023-02-11T16:05:05;13.60;63.80
33863;DHT22;20158;51.436;-2.742;2023-02-11T16:07:41;13.50;63.70
33863;DHT22;20158;51.436;-2.742;2023-02-11T16:20:58;13.50;65.40
33863;DHT22;20158;51.436;-2.742;2023-02-11T16:29:00;14.30;66.20
33863;DHT22;20158;51.436;-2.742;2023-02-11T16:31:32;14.40;66.00
33863;DHT22;20158;51.436;-2.742;2023-02-11T16:33:59;14.60;66.10
33863;DHT22;20158;51.436;-2.742;2023-02-11T16:36:25;14.70;66.00
33863;DHT22;20158;51.436;-2.742;2023-02-11T16:38:50;14.90;66.10
33863;DHT22;20158;51.436;-2.742;2023-02-11T16:41:16;15.00;66.10
33863;DHT22;20158;51.436;-2.742;2023-02-11T16:43:42;15.10;66.10
33863;DHT22;20158;51.436;-2.742;2023-02-11T16:46:13;15.20;66.10
33863;DHT22;20158;51.436;-2.742;2023-02-11T16:48:39;15.30;66.30
33863;DHT22;20158;51.436;-2.742;2023-02-11T16:51:05;15.40;66.30
33863;DHT22;20158;51.436;-2.742;2023-02-11T16:53:33;15.40;66.30
33863;DHT22;20158;51.436;-2.742;2023-02-11T16:55:59;15.50;66.30
33863;DHT22;20158;51.436;-2.742;2023-02-11T16:58:25;15.50;66.20
33863;DHT22;20158;51.436;-2.742;2023-02-11T17:00:51;15.50;66.20
33863;DHT22;20158;51.436;-2.742;2023-02-11T17:03:21;15.50;66.20
33863;DHT22;20158;51.436;-2.742;2023-02-11T17:05:47;15.40;66.00
33863;DHT22;20158;51.436;-2.742;2023-02-11T17:08:14;15.40;66.10
33863;DHT22;20158;51.436;-2.742;2023-02-11T17:10:40;15.30;66.00
33863;DHT22;20158;51.436;-2.742;2023-02-11T17:13:06;15.30;66.20
33863;DHT22;20158;51.436;-2.742;2023-02-11T17:15:32;15.20;66.10
33863;DHT22;20158;51.436;-2.742;2023-02-11T17:17:58;15.20;66.20
33863;DHT22;20158;51.436;-2.742;2023-02-11T17:20:24;15.20;66.40
33863;DHT22;20158;51.436;-2.742;2023-02-11T17:22:50;15.10;66.40
33863;DHT22;20158;51.436;-2.742;2023-02-11T17:25:17;15.10;66.30
33863;DHT22;20158;51.436;-2.742;2023-02-11T17:27:43;15.00;65.90
33863;DHT22;20158;51.436;-2.742;2023-02-11T17:30:11;14.90;65.60
33863;DHT22;20158;51.436;-2.742;2023-02-11T17:32:37;14.70;65.60
33863;DHT22;20158;51.436;-2.742;2023-02-11T17:35:04;14.70;65.70
33863;DHT22;20158;51.436;-2.742;2023-02-11T17:37:33;14.60;65.60
33863;DHT22;20158;51.436;-2.742;2023-02-11T17:39:59;14.60;65.60
33863;DHT22;20158;51.436;-2.742;2023-02-11T17:42:24;14.50;65.50
33863;DHT22;20158;51.436;-2.742;2023-02-11T17:44:51;14.50;65.60
33863;DHT22;20158;51.436;-2.742;2023-02-11T17:47:17;14.40;65.50
33863;DHT22;20158;51.436;-2.742;2023-02-11T17:49:43;14.40;65.50
33863;DHT22;20158;51.436;-2.742;2023-02-11T17:52:09;14.30;65.50
33863;DHT22;20158;51.436;-2.742;2023-02-11T17:54:36;14.30;65.50
33863;DHT22;20158;51.436;-2.742;2023-02-11T17:57:02;14.30;65.70
33863;DHT22;20158;51.436;-2.742;2023-02-11T17:59:28;14.20;65.70
33863;DHT22;20158;51.436;-2.742;2023-02-11T18:02:01;14.20;65.70
33863;DHT22;20158;51.436;-2.742;2023-02-11T18:04:27;14.10;65.50
33863;DHT22;20158;51.436;-2.742;2023-02-11T18:06:53;14.10;65.60
33863;DHT22;20158;51.436;-2.742;2023-02-11T18:09:19;14.00;65.50
33863;DHT22;20158;51.436;-2.742;2023-02-11T18:11:45;13.90;65.40
33863;DHT22;20158;51.436;-2.742;2023-02-11T18:14:11;13.80;65.30
33863;DHT22;20158;51.436;-2.742;2023-02-11T18:16:37;13.80;65.30
33863;DHT22;20158;51.436;-2.742;2023-02-11T18:19:07;13.70;65.20
33863;DHT22;20158;51.436;-2.742;2023-02-11T18:21:33;13.70;65.30
33863;DHT22;20158;51.436;-2.742;2023-02-11T18:23:59;13.60;65.20
33863;DHT22;20158;51.436;-2.742;2023-02-11T18:26:25;13.50;65.20